Time;durP1;ratioP1;P1;durP2;ratioP2;P2;SDS_P1;SDS_P2;PMS_P1;PMS_P2;Temp;Humidity;BMP_temperature;BMP_pressure;BME280_temperature;BME280_humidity;BME280_pressure;Samples;Min_cycle;Max_cycle;Signal;HPM_P1;HPM_P2
2022/02/16 00:01:08;;;;;;;0.67;0.67;;;9.10;99.90;;;;;;4920759;29;20184;-89
2022/02/16 00:03:34;;;;;;;2.90;1.60;;;5.90;99.90;;;;;;4906451;29;20452;-91
2022/02/16 00:05:59;;;;;;;1.67;1.67;;;7.50;99.90;;;;;;4904539;29;20440;-88
2022/02/16 00:08:25;;;;;;;1.20;1.20;;;5.40;99.90;;;;;;4904209;29;20195;-90
2022/02/16 00:10:51;;;;;;;1.30;1.20;;;8.20;99.90;;;;;;4907103;29;20291;-90
2022/02/16 00:13:19;;;;;;;1.20;1.20;;;5.80;99.90;;;;;;4908756;29;20471;-90
2022/02/16 00:15:45;;;;;;;1.60;1.60;;;6.90;99.90;;;;;;4920583;29;20441;-89
2022/02/16 00:18:14;;;;;;;1.53;1.43;;;7.40;99.90;;;;;;4913485;29;20231;-91
2022/02/16 00:20:42;;;;;;;1.15;1.15;;;7.80;99.90;;;;;;4914197;29;20188;-90
2022/02/16 00:23:08;;;;;;;1.20;1.20;;;7.30;99.90;;;;;;4902389;29;20197;-90
2022/02/16 00:25:34;;;;;;;2.63;1.33;;;7.70;99.90;;;;;;4913338;29;20432;-89
2022/02/16 00:28:00;;;;;;;1.40;1.40;;;;;;;;;;4909095;29;20210;-90
2022/02/16 00:30:27;;;;;;;0.90;0.90;;;7.50;99.90;;;;;;4903293;29;20215;-90
2022/02/16 00:32:52;;;;;;;1.00;1.00;;;7.20;99.90;;;;;;4891336;29;20971;-90
2022/02/16 00:35:18;;;;;;;1.13;1.13;;;7.70;99.90;;;;;;4892498;29;20295;-88
2022/02/16 00:37:43;;;;;;;1.43;1.00;;;7.70;99.90;;;;;;4894403;29;20203;-89
2022/02/16 00:40:10;;;;;;;1.73;0.90;;;7.90;99.90;;;;;;4896255;29;20192;-88
2022/02/16 00:42:35;;;;;;;1.10;0.90;;;7.60;99.90;;;;;;4894355;29;20794;-87
2022/02/16 00:45:01;;;;;;;1.93;1.80;;;7.20;99.90;;;;;;4888238;29;20447;-88
2022/02/16 00:47:27;;;;;;;1.80;1.43;;;7.10;99.90;;;;;;4894875;29;20750;-89
2022/02/16 00:49:52;;;;;;;1.40;1.40;;;6.10;99.90;;;;;;4909328;29;20666;-89
2022/02/16 00:52:19;;;;;;;2.73;1.40;;;5.80;99.90;;;;;;4901675;29;20214;-89
2022/02/16 00:54:44;;;;;;;1.50;1.50;;;8.30;99.90;;;;;;4895592;29;20533;-90
2022/02/16 00:57:10;;;;;;;1.40;1.37;;;6.50;99.90;;;;;;4896246;29;20527;-91
2022/02/16 00:59:35;;;;;;;1.50;1.50;;;7.70;99.90;;;;;;4914252;29;20690;-89
2022/02/16 01:02:01;;;;;;;1.13;1.13;;;7.10;99.90;;;;;;4905992;29;20197;-89
2022/02/16 01:04:27;;;;;;;1.67;1.57;;;7.50;99.90;;;;;;4893788;29;20183;-90
2022/02/16 01:06:56;;;;;;;1.23;1.23;;;7.50;99.90;;;;;;4893282;29;20200;-90
2022/02/16 01:09:22;;;;;;;1.30;1.30;;;7.60;99.90;;;;;;4903605;29;20192;-90
2022/02/16 01:11:47;;;;;;;1.43;1.33;;;7.30;99.90;;;;;;4892783;29;20255;-88
2022/02/16 01:14:13;;;;;;;1.03;1.03;;;7.30;99.90;;;;;;4912418;29;20781;-89
2022/02/16 01:16:39;;;;;;;1.80;1.80;;;7.60;99.90;;;;;;4904092;29;20185;-90
2022/02/16 01:19:05;;;;;;;1.13;1.13;;;7.80;99.90;;;;;;4885834;29;20223;-90
2022/02/16 01:21:33;;;;;;;1.20;1.20;;;8.50;99.90;;;;;;4893148;29;20220;-89
2022/02/16 01:23:59;;;;;;;2.42;1.30;;;7.20;99.90;;;;;;4896157;29;20436;-89
2022/02/16 01:26:25;;;;;;;1.20;1.20;;;7.60;99.90;;;;;;4895149;29;20199;-89
2022/02/16 01:28:51;;;;;;;1.40;1.40;;;;;;;;;;4890595;29;20205;-90
2022/02/16 01:31:16;;;;;;;1.10;1.10;;;7.70;99.90;;;;;;4914618;29;20642;-88
2022/02/16 01:33:42;;;;;;;0.90;0.90;;;7.50;99.90;;;;;;4887785;29;20437;-89
2022/02/16 01:36:08;;;;;;;1.60;1.43;;;7.40;99.90;;;;;;4909728;29;20480;-89
2022/02/16 01:38:35;;;;;;;1.10;1.10;;;7.20;99.90;;;;;;4903750;29;20258;-88
2022/02/16 01:41:01;;;;;;;1.20;1.20;;;7.50;99.90;;;;;;4909442;29;20283;-90
2022/02/16 01:43:27;;;;;;;1.05;1.05;;;7.40;99.90;;;;;;4896232;29;20601;-90
2022/02/16 01:45:52;;;;;;;1.20;1.20;;;7.50;99.90;;;;;;4887533;29;20193;-90
2022/02/16 01:48:18;;;;;;;1.13;1.13;;;7.50;99.90;;;;;;4887204;29;20195;-90
2022/02/16 01:50:43;;;;;;;1.07;1.07;;;7.40;99.90;;;;;;4894851;29;20627;-90
2022/02/16 01:53:09;;;;;;;0.83;0.83;;;7.60;99.90;;;;;;4893124;29;20630;-90
2022/02/16 01:55:35;;;;;;;0.97;0.97;;;7.40;99.90;;;;;;4911296;29;20184;-90
2022/02/16 01:58:02;;;;;;;0.90;0.90;;;7.30;99.90;;;;;;4909517;29;20950;-90
2022/02/16 02:00:28;;;;;;;1.10;1.10;;;7.50;99.90;;;;;;4892712;29;20735;-89
2022/02/16 02:02:53;;;;;;;0.93;0.93;;;7.80;99.90;;;;;;4909590;29;20440;-89
2022/02/16 02:05:19;;;;;;;1.20;1.20;;;7.50;99.90;;;;;;4879853;29;20464;-90
2022/02/16 02:07:45;;;;;;;1.20;1.20;;;7.50;99.90;;;;;;4892422;29;20675;-90
2022/02/16 02:10:11;;;;;;;1.00;1.00;;;7.50;99.90;;;;;;4890982;29;20283;-90
2022/02/16 02:12:47;;;;;;;1.10;1.10;;;7.60;99.90;;;;;;4909214;29;20210;-89
2022/02/16 02:15:14;;;;;;;0.95;0.95;;;7.70;99.90;;;;;;4908938;29;20471;-90
2022/02/16 02:17:40;;;;;;;1.17;1.17;;;7.50;99.90;;;;;;4892090;29;20223;-90
2022/02/16 02:20:21;;;;;;;1.47;1.43;;;6.50;99.90;;;;;;4894283;29;20625;-90
2022/02/16 02:22:46;;;;;;;1.10;1.00;;;6.90;99.90;;;;;;4902974;29;20440;-90
2022/02/16 02:25:13;;;;;;;1.23;1.23;;;7.70;99.90;;;;;;4888848;29;20448;-89
2022/02/16 02:27:39;;;;;;;1.17;1.17;;;9.80;99.90;;;;;;4905021;29;20535;-89
2022/02/16 02:30:05;;;;;;;1.40;1.30;;;7.60;99.90;;;;;;4900186;29;20220;-90
2022/02/16 02:32:31;;;;;;;1.03;1.03;;;7.80;99.90;;;;;;4905846;29;20263;-90
2022/02/16 02:34:57;;;;;;;4.47;1.10;;;7.70;99.90;;;;;;4906364;29;20490;-89
2022/02/16 02:37:22;;;;;;;1.50;1.50;;;7.70;99.90;;;;;;4897046;29;20443;-90
2022/02/16 02:39:48;;;;;;;1.10;1.10;;;7.50;99.90;;;;;;4906488;29;20212;-89
2022/02/16 02:42:13;;;;;;;1.40;1.40;;;9.20;99.90;;;;;;4915715;29;20206;-89
2022/02/16 02:44:39;;;;;;;1.07;1.07;;;7.70;99.90;;;;;;4898730;29;20184;-90
2022/02/16 02:47:05;;;;;;;1.90;1.17;;;7.70;99.90;;;;;;4914803;29;20196;-90
2022/02/16 02:49:31;;;;;;;0.97;0.97;;;7.90;99.90;;;;;;4918008;29;20421;-90
2022/02/16 02:51:56;;;;;;;1.37;1.37;;;7.70;99.90;;;;;;4921007;29;20211;-90
2022/02/16 02:54:22;;;;;;;1.40;1.40;;;7.00;99.90;;;;;;4889235;29;20275;-90
2022/02/16 02:56:47;;;;;;;1.23;1.23;;;9.70;99.90;;;;;;4898594;29;20204;-89
2022/02/16 02:59:13;;;;;;;1.30;1.20;;;8.30;99.90;;;;;;4925154;29;20267;-89
2022/02/16 03:01:43;;;;;;;1.20;1.20;;;7.70;99.90;;;;;;4900782;29;20563;-90
2022/02/16 03:04:08;;;;;;;0.90;0.90;;;7.70;99.90;;;;;;4884667;29;20199;-90
2022/02/16 03:06:34;;;;;;;1.43;1.43;;;7.60;99.90;;;;;;4906367;29;20432;-89
2022/02/16 03:08:59;;;;;;;1.20;1.13;;;8.20;99.90;;;;;;4933838;29;20247;-89
2022/02/16 03:11:25;;;;;;;1.33;1.27;;;7.90;99.90;;;;;;4903772;29;20192;-88
2022/02/16 03:13:53;;;;;;;1.57;1.23;;;9.00;99.90;;;;;;4892653;29;20547;-90
2022/02/16 03:16:19;;;;;;;1.30;1.30;;;7.80;99.90;;;;;;4917340;29;20180;-90
2022/02/16 03:18:44;;;;;;;1.60;1.60;;;7.60;99.90;;;;;;4887432;29;20548;-89
2022/02/16 03:21:10;;;;;;;1.17;1.17;;;7.30;99.90;;;;;;4909624;29;20193;-89
2022/02/16 03:23:36;;;;;;;1.40;1.40;;;7.50;99.90;;;;;;4892971;29;20205;-89
2022/02/16 03:26:02;;;;;;;1.50;1.50;;;7.70;99.90;;;;;;4903357;29;20204;-88
2022/02/16 03:28:27;;;;;;;1.53;1.53;;;7.80;99.90;;;;;;4903922;29;20197;-89
2022/02/16 03:30:53;;;;;;;1.17;1.17;;;7.60;99.90;;;;;;4913299;29;20425;-89
2022/02/16 03:33:19;;;;;;;1.37;1.27;;;8.70;99.90;;;;;;4906514;29;20229;-90
2022/02/16 03:35:44;;;;;;;1.50;1.50;;;7.70;99.90;;;;;;4898167;29;20591;-89
2022/02/16 03:38:10;;;;;;;1.10;1.10;;;7.60;99.90;;;;;;4901423;29;20209;-89
2022/02/16 03:40:35;;;;;;;1.13;1.13;;;8.20;99.90;;;;;;4891937;29;20193;-89
2022/02/16 03:43:01;;;;;;;1.10;1.10;;;7.50;99.90;;;;;;4919353;29;20227;-89
2022/02/16 03:45:27;;;;;;;1.30;1.30;;;7.90;99.90;;;;;;4897700;29;20185;-89
2022/02/16 03:47:54;;;;;;;1.33;1.33;;;7.30;99.90;;;;;;4896657;29;20615;-89
2022/02/16 03:50:22;;;;;;;1.27;1.27;;;10.30;99.90;;;;;;4890790;29;20384;-89
2022/02/16 03:52:49;;;;;;;1.15;1.15;;;10.70;99.90;;;;;;4895159;29;20433;-90
2022/02/16 03:55:15;;;;;;;1.17;1.17;;;7.00;99.90;;;;;;4894522;29;20767;-89
2022/02/16 03:57:41;;;;;;;1.40;1.40;;;10.40;99.90;;;;;;4892812;29;20440;-89
2022/02/16 04:00:09;;;;;;;0.97;0.97;;;7.90;99.90;;;;;;4894909;29;21063;-89
2022/02/16 04:02:35;;;;;;;1.27;1.20;;;8.20;99.90;;;;;;4887651;29;20460;-89
2022/02/16 04:05:00;;;;;;;1.17;1.17;;;8.20;99.90;;;;;;4893115;29;20540;-89
2022/02/16 04:07:26;;;;;;;1.20;1.20;;;7.90;99.90;;;;;;4892075;29;20964;-89
2022/02/16 04:09:52;;;;;;;1.23;1.23;;;8.00;99.90;;;;;;4889391;29;20429;-89
2022/02/16 04:12:18;;;;;;;1.00;1.00;;;7.60;99.90;;;;;;4883510;29;20838;-89
2022/02/16 04:14:43;;;;;;;4.73;1.27;;;8.00;99.90;;;;;;4879167;29;20428;-89
2022/02/16 04:17:09;;;;;;;1.00;0.97;;;8.00;99.90;;;;;;4893563;29;20235;-90
2022/02/16 04:19:35;;;;;;;1.17;1.17;;;7.70;99.90;;;;;;4896879;29;20204;-90
2022/02/16 04:22:00;;;;;;;1.10;1.10;;;8.10;99.90;;;;;;4895818;29;20220;-90
2022/02/16 04:24:26;;;;;;;1.20;1.20;;;7.70;99.90;;;;;;4890682;29;20185;-90
2022/02/16 04:26:51;;;;;;;1.27;1.27;;;7.90;99.90;;;;;;4894919;29;20216;-90
2022/02/16 04:29:17;;;;;;;1.43;1.43;;;8.00;99.90;;;;;;4897206;29;20173;-90
2022/02/16 04:31:43;;;;;;;0.90;0.90;;;7.60;99.90;;;;;;4878429;29;20203;-90
2022/02/16 04:34:08;;;;;;;1.50;1.30;;;7.90;99.90;;;;;;4899430;29;20204;-90
2022/02/16 04:36:34;;;;;;;0.93;0.93;;;7.80;99.90;;;;;;4863649;29;20253;-89
2022/02/16 04:39:00;;;;;;;0.90;0.90;;;8.40;99.90;;;;;;4882902;29;20246;-89
2022/02/16 04:41:26;;;;;;;1.33;1.33;;;7.90;99.90;;;;;;4887790;29;20186;-89
2022/02/16 04:43:52;;;;;;;1.07;1.07;;;8.20;99.90;;;;;;4895269;29;20441;-90
2022/02/16 04:46:18;;;;;;;3.33;1.17;;;7.70;99.90;;;;;;4893129;29;20441;-89
2022/02/16 04:48:44;;;;;;;1.10;1.10;;;9.30;99.90;;;;;;4889617;29;20983;-90
2022/02/16 04:51:10;;;;;;;1.20;1.20;;;8.10;99.90;;;;;;4894184;29;20612;-89
2022/02/16 04:53:36;;;;;;;1.40;1.40;;;7.30;99.90;;;;;;4894123;29;20438;-90
2022/02/16 04:56:03;;;;;;;1.00;1.00;;;7.80;99.90;;;;;;4880167;29;20236;-90
2022/02/16 04:58:29;;;;;;;1.30;1.30;;;8.10;99.90;;;;;;4896300;29;20896;-90
2022/02/16 05:00:57;;;;;;;1.03;1.03;;;8.90;99.90;;;;;;4901739;29;20252;-90
2022/02/16 05:03:23;;;;;;;0.90;0.90;;;8.00;99.90;;;;;;4874619;29;20470;-90
2022/02/16 05:05:49;;;;;;;1.00;1.00;;;7.90;99.90;;;;;;4899524;29;20461;-89
2022/02/16 05:08:15;;;;;;;1.40;1.40;;;8.00;99.90;;;;;;4900264;29;20638;-89
2022/02/16 05:10:40;;;;;;;0.70;0.70;;;8.50;99.90;;;;;;4883568;29;20195;-90
2022/02/16 05:13:07;;;;;;;0.90;0.90;;;8.60;99.90;;;;;;4890118;29;20216;-89
2022/02/16 05:15:33;;;;;;;0.93;0.93;;;8.00;99.90;;;;;;4900235;29;20197;-89
2022/02/16 05:17:59;;;;;;;0.97;0.97;;;8.60;99.90;;;;;;4890184;29;20462;-90
2022/02/16 05:20:25;;;;;;;0.83;0.83;;;8.10;99.90;;;;;;4898111;29;20437;-89
2022/02/16 05:22:51;;;;;;;1.10;1.10;;;7.30;99.90;;;;;;4898733;29;20440;-90
2022/02/16 05:25:16;;;;;;;1.40;1.40;;;7.80;99.90;;;;;;4892183;29;20517;-88
2022/02/16 05:27:42;;;;;;;1.03;1.03;;;8.10;99.90;;;;;;4901044;29;20203;-88
2022/02/16 05:30:09;;;;;;;1.03;1.03;;;11.50;99.90;;;;;;4885779;29;20448;-92
2022/02/16 05:32:34;;;;;;;1.17;0.80;;;8.20;99.90;;;;;;4903054;29;20438;-90
2022/02/16 05:35:00;;;;;;;4.20;0.90;;;6.50;99.90;;;;;;4912419;29;20535;-88
2022/02/16 05:37:26;;;;;;;0.97;0.97;;;10.30;99.90;;;;;;4895262;29;20196;-89
2022/02/16 05:39:53;;;;;;;1.00;1.00;;;7.80;99.90;;;;;;4897111;29;20558;-88
2022/02/16 05:42:19;;;;;;;1.10;1.10;;;8.20;99.90;;;;;;4894992;29;20456;-89
2022/02/16 05:44:44;;;;;;;0.90;0.90;;;11.10;99.90;;;;;;4890225;29;20422;-88
2022/02/16 05:47:10;;;;;;;0.73;0.73;;;9.20;99.90;;;;;;4888642;29;20197;-89
2022/02/16 05:49:36;;;;;;;0.87;0.87;;;8.20;99.90;;;;;;4900111;29;20179;-89
2022/02/16 05:52:01;;;;;;;1.53;1.53;;;8.10;99.90;;;;;;4887730;29;20219;-88
2022/02/16 05:54:27;;;;;;;1.07;1.07;;;8.20;99.90;;;;;;4889222;29;20311;-89
2022/02/16 05:56:54;;;;;;;1.40;1.10;;;9.10;99.90;;;;;;4892075;29;20181;-88
2022/02/16 05:59:20;;;;;;;1.30;1.30;;;8.90;99.90;;;;;;4881786;29;20220;-88
2022/02/16 06:01:45;;;;;;;1.20;1.20;;;11.10;99.90;;;;;;4891524;29;20834;-88
2022/02/16 06:04:15;;;;;;;0.77;0.73;;;10.70;99.90;;;;;;4894658;29;20227;-89
2022/02/16 06:06:44;;;;;;;1.00;1.00;;;9.10;99.90;;;;;;4898269;29;20419;-88
2022/02/16 06:09:09;;;;;;;1.03;1.03;;;7.90;99.90;;;;;;4884865;29;20438;-89
2022/02/16 06:11:35;;;;;;;1.23;0.80;;;8.20;99.90;;;;;;4899820;29;20436;-89
2022/02/16 06:14:01;;;;;;;0.60;0.60;;;8.00;99.90;;;;;;4896811;29;20468;-89
2022/02/16 06:16:26;;;;;;;1.70;0.60;;;8.30;99.90;;;;;;4897276;29;20232;-88
2022/02/16 06:18:52;;;;;;;0.70;0.70;;;8.20;99.90;;;;;;4894766;29;20235;-88
2022/02/16 06:21:18;;;;;;;0.60;0.60;;;8.30;99.90;;;;;;4899023;29;20184;-89
2022/02/16 06:23:43;;;;;;;0.90;0.90;;;8.10;99.90;;;;;;4899619;29;20192;-89
2022/02/16 06:26:09;;;;;;;0.80;0.80;;;8.20;99.90;;;;;;4916028;29;20229;-86
2022/02/16 06:28:35;;;;;;;0.77;0.77;;;8.20;99.90;;;;;;4903888;29;20241;-88
2022/02/16 06:31:04;;;;;;;0.80;0.80;;;8.20;99.90;;;;;;4885014;29;20237;-90
2022/02/16 06:33:34;;;;;;;1.50;0.57;;;9.20;99.90;;;;;;4913705;29;20199;-90
2022/02/16 06:36:00;;;;;;;0.50;0.50;;;8.50;99.90;;;;;;4899862;29;20437;-89
2022/02/16 06:38:25;;;;;;;0.63;0.60;;;8.60;99.90;;;;;;4896838;29;20513;-89
2022/02/16 06:40:51;;;;;;;0.90;0.90;;;10.90;99.90;;;;;;4910886;29;20478;-89
2022/02/16 06:43:17;;;;;;;1.13;0.70;;;8.80;99.90;;;;;;4903088;29;20189;-88
2022/02/16 06:45:43;;;;;;;0.63;0.63;;;8.90;99.90;;;;;;4895416;29;20183;-87
2022/02/16 06:48:09;;;;;;;0.63;0.63;;;9.30;99.90;;;;;;4891569;29;20445;-89
2022/02/16 06:50:34;;;;;;;0.50;0.50;;;8.70;99.90;;;;;;4881943;29;20494;-87
2022/02/16 06:53:00;;;;;;;0.50;0.50;;;8.30;99.90;;;;;;4901258;29;20267;-89
2022/02/16 06:55:26;;;;;;;0.60;0.60;;;11.10;99.90;;;;;;4216885;29;10000641;-90
2022/02/16 06:57:56;;;;;;;0.60;0.60;;;9.30;99.90;;;;;;4887946;29;20212;-90
2022/02/16 07:00:22;;;;;;;0.77;0.60;;;8.90;99.90;;;;;;4885660;29;20209;-90
2022/02/16 07:02:48;;;;;;;0.47;0.47;;;7.50;99.90;;;;;;4893422;29;20433;-90
2022/02/16 07:05:15;;;;;;;0.70;0.70;;;9.00;99.90;;;;;;4884495;29;20201;-90
2022/02/16 07:07:41;;;;;;;0.60;0.60;;;7.90;99.90;;;;;;4890463;29;20429;-90
2022/02/16 07:10:08;;;;;;;0.67;0.67;;;8.60;99.90;;;;;;4893511;29;20583;-91
2022/02/16 07:12:36;;;;;;;0.77;0.77;;;9.30;99.90;;;;;;4898093;29;20196;-90
2022/02/16 07:15:02;;;;;;;0.67;0.67;;;10.40;99.90;;;;;;4883853;29;20473;-90
2022/02/16 07:17:27;;;;;;;1.00;0.47;;;8.60;99.90;;;;;;4892076;29;20456;-90
2022/02/16 07:19:53;;;;;;;0.70;0.70;;;8.80;99.90;;;;;;4895283;29;20487;-89
2022/02/16 07:22:19;;;;;;;0.60;0.60;;;8.20;99.90;;;;;;4902916;29;20177;-90
2022/02/16 07:24:44;;;;;;;0.60;0.60;;;9.00;99.90;;;;;;4909622;29;20198;-89
2022/02/16 07:27:10;;;;;;;1.17;0.63;;;8.50;99.90;;;;;;4906442;29;20197;-90
2022/02/16 07:29:36;;;;;;;0.60;0.60;;;8.40;99.90;;;;;;4887794;29;20236;-87
2022/02/16 07:32:02;;;;;;;0.70;0.70;;;8.90;99.90;;;;;;4917737;29;20435;-89
2022/02/16 07:34:30;;;;;;;0.57;0.57;;;9.10;99.90;;;;;;4892578;29;20260;-90
2022/02/16 07:36:56;;;;;;;0.30;0.30;;;8.80;99.90;;;;;;4916690;29;20434;-88
2022/02/16 07:39:27;;;;;;;2.33;0.83;;;10.30;99.90;;;;;;4921992;29;20508;-90
2022/02/16 07:41:54;;;;;;;0.63;0.63;;;9.50;99.90;;;;;;4906487;29;20287;-90
2022/02/16 07:44:19;;;;;;;0.60;0.60;;;11.50;99.90;;;;;;4888752;29;20451;-88
2022/02/16 07:46:45;;;;;;;0.60;0.60;;;9.60;99.90;;;;;;4899740;29;20200;-92
2022/02/16 07:49:10;;;;;;;0.90;0.90;;;7.00;99.90;;;;;;4898546;29;20196;-90
2022/02/16 07:51:39;;;;;;;0.43;0.43;;;11.90;99.90;;;;;;4916765;29;20286;-91
2022/02/16 07:54:04;;;;;;;1.13;1.00;;;10.00;99.90;;;;;;4893120;29;20405;-90
2022/02/16 07:56:34;;;;;;;1.13;1.13;;;8.80;99.90;;;;;;4910847;29;20496;-89
2022/02/16 07:59:02;;;;;;;0.40;0.40;;;8.80;99.90;;;;;;4921652;29;20254;-90
2022/02/16 08:01:28;;;;;;;0.80;0.80;;;9.70;99.90;;;;;;4899544;29;20458;-89
2022/02/16 08:04:15;;;;;;;0.67;0.67;;;12.10;99.90;;;;;;4911550;29;20445;-86
2022/02/16 08:06:39;;;;;;;0.50;0.50;;;8.00;99.90;;;;;;4916350;29;20413;-89
2022/02/16 08:09:05;;;;;;;1.93;1.80;;;9.00;99.90;;;;;;4896220;29;20461;-88
2022/02/16 08:11:30;;;;;;;0.90;0.90;;;8.70;99.90;;;;;;4917494;29;20264;-87
2022/02/16 08:13:56;;;;;;;0.50;0.50;;;8.50;99.90;;;;;;4918881;29;20196;-88
2022/02/16 08:16:27;;;;;;;0.50;0.50;;;9.00;99.90;;;;;;4915194;29;20196;-90
2022/02/16 08:18:53;;;;;;;0.60;0.60;;;12.00;99.90;;;;;;4919571;29;20338;-90
2022/02/16 08:21:19;;;;;;;2.07;0.73;;;;;;;;;;4914082;29;20860;-88
2022/02/16 08:23:44;;;;;;;2.53;0.90;;;9.00;99.90;;;;;;4913645;29;20397;-87
2022/02/16 08:26:10;;;;;;;0.47;0.47;;;8.70;99.90;;;;;;4900369;29;20436;-88
2022/02/16 08:28:37;;;;;;;0.60;0.60;;;8.00;99.90;;;;;;4920092;29;20179;-89
2022/02/16 08:31:03;;;;;;;0.70;0.70;;;9.40;99.90;;;;;;4922140;29;20225;-90
2022/02/16 08:33:29;;;;;;;0.80;0.80;;;9.00;99.90;;;;;;4899007;29;20818;-89
2022/02/16 08:35:56;;;;;;;0.67;0.67;;;8.40;99.90;;;;;;4918807;29;20191;-89
2022/02/16 08:38:22;;;;;;;0.80;0.80;;;8.80;99.90;;;;;;4910600;29;20459;-89
2022/02/16 08:40:47;;;;;;;0.87;0.87;;;8.80;99.90;;;;;;4904198;29;20460;-89
2022/02/16 08:43:13;;;;;;;0.50;0.50;;;8.60;99.90;;;;;;4912374;29;20430;-92
2022/02/16 08:45:45;;;;;;;1.30;1.30;;;8.90;99.90;;;;;;4932244;29;20176;-89
2022/02/16 08:48:13;;;;;;;1.10;1.10;;;9.10;99.90;;;;;;4921691;29;20231;-87
2022/02/16 08:50:39;;;;;;;1.33;1.20;;;9.20;99.90;;;;;;4916999;29;20468;-89
2022/02/16 08:53:06;;;;;;;0.80;0.80;;;8.80;99.90;;;;;;4908057;29;20444;-89
2022/02/16 08:55:32;;;;;;;0.70;0.70;;;9.30;99.90;;;;;;4927268;29;20192;-91
2022/02/16 08:58:00;;;;;;;0.87;0.70;;;9.10;99.90;;;;;;4924228;29;20433;-89
2022/02/16 09:00:26;;;;;;;1.00;1.00;;;9.10;99.90;;;;;;4910106;29;20456;-92
2022/02/16 09:02:51;;;;;;;0.40;0.40;;;9.10;99.90;;;;;;4925026;29;20643;-89
2022/02/16 09:05:18;;;;;;;0.70;0.70;;;8.90;99.90;;;;;;4905686;29;20207;-88
2022/02/16 09:07:45;;;;;;;0.87;0.80;;;10.20;99.90;;;;;;4911871;29;20200;-89
2022/02/16 09:10:13;;;;;;;0.50;0.50;;;11.40;99.90;;;;;;4893332;29;20437;-88
2022/02/16 09:12:39;;;;;;;0.60;0.60;;;7.40;99.90;;;;;;4905397;29;20471;-89
2022/02/16 09:15:05;;;;;;;0.60;0.60;;;11.70;99.90;;;;;;4899431;29;20472;-89
2022/02/16 09:17:32;;;;;;;0.57;0.57;;;9.90;99.90;;;;;;4901076;29;20844;-90
2022/02/16 09:19:58;;;;;;;0.40;0.40;;;10.10;99.90;;;;;;4926694;29;21053;-91
2022/02/16 09:22:27;;;;;;;0.50;0.50;;;9.30;99.90;;;;;;4908813;29;20450;-91
2022/02/16 09:24:53;;;;;;;0.50;0.50;;;13.00;99.90;;;;;;4896255;29;20455;-94
2022/02/16 09:27:21;;;;;;;0.63;0.63;;;9.10;99.90;;;;;;4903048;29;20432;-91
2022/02/16 09:29:47;;;;;;;0.80;0.80;;;10.10;99.90;;;;;;4903287;29;20459;-91
2022/02/16 09:32:14;;;;;;;0.40;0.40;;;10.30;99.90;;;;;;4913175;29;20514;-90
2022/02/16 09:34:40;;;;;;;0.60;0.60;;;9.70;99.90;;;;;;4923412;29;20455;-91
2022/02/16 09:37:06;;;;;;;0.70;0.70;;;10.00;99.90;;;;;;4897388;29;20519;-91
2022/02/16 09:39:32;;;;;;;0.60;0.60;;;9.80;99.90;;;;;;4903402;29;20620;-91
2022/02/16 09:41:59;;;;;;;0.70;0.70;;;10.10;99.90;;;;;;4912172;29;20180;-90
2022/02/16 09:44:37;;;;;;;0.47;0.47;;;9.80;99.90;;;;;;4911918;29;20420;-89
2022/02/16 09:47:05;;;;;;;1.03;0.90;;;9.80;99.90;;;;;;4906508;29;20468;-93
2022/02/16 09:49:33;;;;;;;0.80;0.80;;;10.20;99.90;;;;;;4922153;29;20811;-91
2022/02/16 09:51:59;;;;;;;0.70;0.70;;;12.70;99.90;;;;;;4908224;29;20506;-92
2022/02/16 09:54:25;;;;;;;4.47;0.90;;;10.20;99.90;;;;;;4903838;29;20531;-92
2022/02/16 09:56:51;;;;;;;0.60;0.60;;;12.30;99.90;;;;;;4576190;29;9999698;-92
2022/02/16 09:59:17;;;;;;;0.53;0.53;;;10.40;99.90;;;;;;4924385;29;20214;-92
2022/02/16 10:01:52;;;;;;;0.87;0.50;;;11.20;99.90;;;;;;4937508;29;20423;-89
2022/02/16 10:04:22;;;;;;;0.53;0.53;;;9.70;99.90;;;;;;4924302;29;20612;-92
2022/02/16 10:06:48;;;;;;;0.80;0.80;;;10.80;99.90;;;;;;4939877;29;20456;-89
2022/02/16 10:09:30;;;;;;;1.80;1.00;;;11.60;99.90;;;;;;4935474;29;20455;-91
2022/02/16 10:12:15;;;;;;;0.83;0.80;;;10.40;99.90;;;;;;4913123;29;20451;-92
2022/02/16 10:14:42;;;;;;;0.60;0.60;;;10.50;99.90;;;;;;4898733;29;20522;-92
2022/02/16 10:17:22;;;;;;;1.67;0.67;;;10.60;99.90;;;;;;4902787;29;20817;-91
2022/02/16 10:19:53;;;;;;;0.83;0.83;;;10.80;99.90;;;;;;4923121;29;20475;-93
2022/02/16 10:22:21;;;;;;;1.10;1.10;;;10.20;99.90;;;;;;4924720;29;20432;-94
2022/02/16 10:24:47;;;;;;;0.90;0.90;;;10.40;99.90;;;;;;4915660;29;20436;-92
2022/02/16 10:27:14;;;;;;;0.80;0.80;;;10.40;99.90;;;;;;4904636;29;20420;-93
2022/02/16 10:29:42;;;;;;;0.90;0.90;;;10.70;99.90;;;;;;4904335;29;20436;-90
2022/02/16 10:32:31;;;;;;;0.90;0.90;;;13.20;99.90;;;;;;4925701;29;20993;-91
2022/02/16 10:34:58;;;;;;;3.93;3.83;;;11.80;99.90;;;;;;4894868;29;20458;-92
2022/02/16 10:37:35;;;;;;;0.70;0.70;;;11.90;99.90;;;;;;4920503;29;20529;-90
2022/02/16 10:40:14;;;;;;;1.13;1.13;;;16.00;99.90;;;;;;4904945;29;20880;-92
2022/02/16 10:42:58;;;;;;;1.00;1.00;;;10.70;99.90;;;;;;4884650;29;20460;-90
2022/02/16 10:45:26;;;;;;;1.23;1.23;;;10.90;99.90;;;;;;4902682;29;20575;-91
2022/02/16 10:48:02;;;;;;;0.73;0.73;;;10.20;99.90;;;;;;4922693;29;20428;-93
2022/02/16 10:50:46;;;;;;;1.23;1.23;;;11.00;99.90;;;;;;4907023;29;20456;-92
2022/02/16 10:53:12;;;;;;;1.33;0.70;;;11.20;99.90;;;;;;4910560;23;20916;-80
2022/02/16 10:55:48;;;;;;;1.47;1.40;;;11.00;99.90;;;;;;4881193;29;20969;-83
2022/02/16 10:58:20;;;;;;;1.30;1.30;;;9.90;99.90;;;;;;4868642;29;20433;-89
2022/02/16 11:00:51;;;;;;;1.30;1.30;;;11.00;99.90;;;;;;4864829;29;20513;-87
2022/02/16 11:03:30;;;;;;;0.90;0.90;;;11.60;99.90;;;;;;4862666;29;21087;-88
2022/02/16 11:05:58;;;;;;;1.40;1.40;;;11.70;99.90;;;;;;4861976;29;20994;-83
2022/02/16 11:08:26;;;;;;;0.93;0.93;;;12.90;99.90;;;;;;4878209;29;20445;-87
2022/02/16 11:10:52;;;;;;;0.80;0.80;;;14.90;99.90;;;;;;4884064;29;20931;-86
2022/02/16 11:13:21;;;;;;;1.07;1.07;;;11.90;99.90;;;;;;4898709;29;20926;-89
2022/02/16 11:15:51;;;;;;;0.80;0.80;;;11.70;99.90;;;;;;4899397;29;20485;-90
2022/02/16 11:18:25;;;;;;;0.60;0.60;;;10.20;99.90;;;;;;4865947;29;20437;-89
2022/02/16 11:21:11;;;;;;;1.40;1.40;;;14.10;99.90;;;;;;4884412;29;20456;-90
2022/02/16 11:23:38;;;;;;;0.47;0.47;;;10.80;99.90;;;;;;4872860;29;20580;-82
2022/02/16 11:26:41;;;;;;;0.70;0.70;;;11.30;99.90;;;;;;4871618;29;20421;-86
2022/02/16 11:29:27;;;;;;;0.97;0.97;;;11.60;99.90;;;;;;4867224;29;20442;-92
2022/02/16 11:32:05;;;;;;;2.97;2.80;;;11.50;99.90;;;;;;4509527;29;10000073;-85
2022/02/16 11:34:33;;;;;;;2.03;1.03;;;11.50;99.90;;;;;;4874054;29;20643;-84
2022/02/16 11:37:02;;;;;;;1.13;1.13;;;15.30;99.90;;;;;;4896343;29;20520;-86
2022/02/16 11:39:49;;;;;;;1.07;1.07;;;16.00;99.90;;;;;;4887707;29;20481;-90
2022/02/16 11:42:18;;;;;;;0.93;0.93;;;12.00;99.90;;;;;;4878680;29;20457;-82
2022/02/16 11:44:50;;;;;;;0.60;0.60;;;12.00;99.90;;;;;;4891337;29;20438;-85
2022/02/16 11:47:34;;;;;;;0.83;0.83;;;9.90;99.90;;;;;;4881799;29;20458;-89
2022/02/16 11:50:28;;;;;;;1.07;1.07;;;12.60;99.90;;;;;;4868758;29;20442;-90
2022/02/16 11:52:59;;;;;;;1.10;1.10;;;10.90;99.90;;;;;;4881983;29;20433;-83
2022/02/16 11:55:34;;;;;;;1.30;1.30;;;12.80;99.90;;;;;;4884955;29;20481;-90
2022/02/16 11:58:05;;;;;;;1.07;1.07;;;11.70;99.90;;;;;;4865926;29;20505;-90
2022/02/16 12:00:42;;;;;;;1.33;1.33;;;15.70;99.90;;;;;;4852577;29;20455;-91
2022/02/16 12:03:10;;;;;;;1.10;1.10;;;15.20;99.90;;;;;;4851141;29;20411;-84
2022/02/16 12:06:07;;;;;;;1.60;1.60;;;12.30;99.90;;;;;;4866868;29;20427;-87
2022/02/16 12:09:02;;;;;;;1.40;1.40;;;11.90;99.90;;;;;;4870229;29;20476;-91
2022/02/16 12:11:29;;;;;;;1.40;1.40;;;11.80;99.90;;;;;;4867359;29;20513;-84
2022/02/16 12:14:18;;;;;;;1.13;1.13;;;14.00;99.90;;;;;;4866604;29;20438;-81
2022/02/16 12:16:58;;;;;;;1.73;1.73;;;12.40;99.90;;;;;;4857099;29;20454;-89
2022/02/16 12:19:24;;;;;;;1.40;1.40;;;11.70;99.90;;;;;;4847054;29;20485;-87
2022/02/16 12:21:52;;;;;;;2.33;1.90;;;11.40;99.90;;;;;;4843931;29;20757;-88
2022/02/16 12:24:22;;;;;;;1.13;1.13;;;11.90;99.90;;;;;;4846243;29;20430;-87
2022/02/16 12:26:55;;;;;;;1.90;1.90;;;11.70;99.90;;;;;;4845066;29;20427;-87
2022/02/16 12:29:24;;;;;;;1.00;1.00;;;12.20;99.90;;;;;;4863596;29;20442;-86
2022/02/16 12:32:00;;;;;;;1.43;1.43;;;12.10;99.90;;;;;;4869997;29;20497;-90
2022/02/16 12:34:29;;;;;;;1.57;1.57;;;12.50;99.90;;;;;;4880420;29;20496;-88
2022/02/16 12:36:58;;;;;;;1.40;1.40;;;11.90;99.90;;;;;;4882923;29;20449;-87
2022/02/16 12:39:25;;;;;;;1.03;1.03;;;11.50;99.90;;;;;;4863540;29;20484;-86
2022/02/16 12:41:51;;;;;;;1.17;1.17;;;11.90;99.90;;;;;;4881950;29;20852;-89
2022/02/16 12:44:27;;;;;;;1.77;1.67;;;11.90;99.90;;;;;;4885676;29;20426;-89
2022/02/16 12:46:53;;;;;;;3.10;1.10;;;10.40;99.90;;;;;;4865680;29;20526;-89
2022/02/16 12:49:22;;;;;;;0.87;0.80;;;11.90;99.90;;;;;;4882920;29;20746;-90
2022/02/16 12:51:50;;;;;;;0.83;0.83;;;12.10;99.90;;;;;;4865801;29;20185;-91
2022/02/16 12:54:19;;;;;;;1.07;1.07;;;12.20;99.90;;;;;;4865345;29;20467;-87
2022/02/16 12:56:48;;;;;;;1.40;1.00;;;12.20;99.90;;;;;;4541156;29;10000268;-88
2022/02/16 12:59:19;;;;;;;1.10;1.10;;;12.30;99.90;;;;;;4863571;29;20216;-84